createdAt,value
2018-11-01T00:00:00.305Z,3.70
2018-11-01T00:01:00.292Z,4.00
2018-11-01T00:02:00.281Z,3.79
2018-11-01T00:03:00.269Z,3.50
2018-11-01T00:04:00.259Z,3.59
2018-11-01T00:05:00.249Z,3.50
2018-11-01T00:06:00.237Z,3.70
2018-11-01T00:07:00.227Z,3.59
2018-11-01T00:08:00.218Z,3.79
2018-11-01T00:09:00.208Z,3.59
2018-11-01T00:10:00.195Z,3.59
2018-11-01T00:11:00.183Z,3.20
2018-11-01T00:12:00.178Z,3.40
2018-11-01T00:13:00.163Z,3.70
2018-11-01T00:14:00.158Z,3.70
2018-11-01T00:15:00.140Z,3.29
2018-11-01T00:16:00.126Z,3.29
2018-11-01T00:17:00.120Z,3.20
2018-11-01T00:18:00.107Z,3.50
2018-11-01T00:19:00.099Z,3.40
2018-11-01T00:20:00.086Z,3.20
2018-11-01T00:21:00.074Z,2.90
2018-11-01T00:22:00.063Z,3.09
2018-11-01T00:23:00.054Z,3.09
2018-11-01T00:24:00.042Z,3.20
2018-11-01T00:25:00.033Z,3.09
2018-11-01T00:26:00.022Z,3.29
2018-11-01T00:27:00.011Z,3.20
2018-11-01T00:27:59.998Z,3.20
2018-11-01T00:28:59.987Z,2.79
2018-11-01T00:29:59.976Z,3.40
2018-11-01T00:30:59.965Z,2.90
2018-11-01T00:31:59.955Z,3.09
2018-11-01T00:32:59.948Z,3.20
2018-11-01T00:33:59.931Z,2.90
2018-11-01T00:34:59.920Z,2.90
2018-11-01T00:35:59.911Z,3.00
2018-11-01T00:36:59.898Z,2.90
2018-11-01T00:37:59.887Z,3.00
2018-11-01T00:38:59.877Z,2.90
2018-11-01T00:39:59.865Z,3.00
2018-11-01T00:40:59.858Z,3.00
2018-11-01T00:41:59.843Z,2.79
2018-11-01T00:42:59.832Z,2.79
2018-11-01T00:43:59.821Z,3.00
2018-11-01T00:44:59.810Z,2.59
2018-11-01T00:45:59.801Z,3.00
2018-11-01T00:46:59.788Z,2.90
2018-11-01T00:47:59.777Z,2.90
2018-11-01T00:48:59.768Z,2.70
2018-11-01T00:49:59.754Z,2.90
2018-11-01T00:50:59.745Z,2.70
2018-11-01T00:51:59.735Z,2.79
2018-11-01T00:52:59.730Z,2.70
2018-11-01T00:53:59.710Z,2.90
2018-11-01T00:54:59.701Z,2.70
2018-11-01T00:55:59.691Z,2.79
2018-11-01T00:56:59.679Z,2.70
2018-11-01T00:57:59.668Z,2.59
2018-11-01T00:58:59.655Z,2.79
2018-11-01T00:59:59.645Z,3.00
2018-11-01T01:00:59.635Z,3.20
2018-11-01T01:01:59.622Z,3.40
2018-11-01T01:02:59.614Z,3.50
2018-11-01T01:03:59.600Z,3.40
2018-11-01T01:04:59.590Z,3.59
2018-11-01T01:05:59.579Z,3.20
2018-11-01T01:06:59.568Z,3.50
2018-11-01T01:07:59.557Z,3.20
2018-11-01T01:08:59.546Z,3.40
2018-11-01T01:09:59.541Z,3.29
2018-11-01T01:10:59.524Z,3.40
2018-11-01T01:11:59.514Z,3.20
2018-11-01T01:12:59.506Z,3.20
2018-11-01T01:13:59.501Z,3.40
2018-11-01T01:14:59.484Z,2.90
2018-11-01T01:15:59.472Z,3.09
2018-11-01T01:16:59.459Z,3.09
2018-11-01T01:17:59.449Z,3.00
2018-11-01T01:18:59.495Z,3.50
2018-11-01T01:19:59.427Z,3.20
2018-11-01T01:20:59.416Z,3.20
2018-11-01T01:21:59.409Z,3.00
2018-11-01T01:22:59.393Z,3.29
2018-11-01T01:23:59.385Z,3.29
2018-11-01T01:24:59.376Z,3.40
2018-11-01T01:25:59.360Z,3.29
2018-11-01T01:26:59.354Z,3.50
2018-11-01T01:27:59.339Z,3.40
2018-11-01T01:28:59.327Z,3.40
2018-11-01T01:29:59.320Z,3.40
2018-11-01T01:30:59.309Z,3.50
2018-11-01T01:31:59.299Z,3.20
2018-11-01T01:32:59.284Z,3.29
2018-11-01T01:33:59.321Z,3.29
2018-11-01T01:34:59.265Z,3.29
2018-11-01T01:35:59.252Z,3.40
2018-11-01T01:36:59.243Z,4.30
2018-11-01T01:37:59.233Z,4.30
2018-11-01T01:38:59.219Z,5.00
2018-11-01T01:39:59.209Z,5.19
2018-11-01T01:40:59.197Z,4.30
2018-11-01T01:41:59.185Z,3.90
2018-11-01T01:42:59.176Z,4.30
2018-11-01T01:43:59.164Z,4.09
2018-11-01T01:44:59.154Z,4.09
2018-11-01T01:45:59.144Z,4.00
2018-11-01T01:46:59.131Z,3.59
2018-11-01T01:47:59.122Z,3.70
2018-11-01T01:48:59.109Z,3.29
2018-11-01T01:49:59.100Z,3.50
2018-11-01T01:50:59.086Z,3.50
2018-11-01T01:51:59.076Z,3.50
2018-11-01T01:52:59.066Z,3.50
2018-11-01T01:53:59.054Z,3.59
2018-11-01T01:54:59.044Z,3.50
2018-11-01T01:55:59.033Z,3.79
2018-11-01T01:56:59.021Z,3.79
2018-11-01T01:57:59.011Z,4.59
2018-11-01T01:58:59.001Z,4.40
2018-11-01T01:59:58.991Z,4.00
2018-11-01T02:00:58.976Z,4.00
2018-11-01T02:01:58.967Z,4.40
2018-11-01T02:02:58.956Z,4.40
2018-11-01T02:03:58.944Z,4.00
2018-11-01T02:04:58.932Z,4.19
2018-11-01T02:05:58.924Z,3.90
2018-11-01T02:06:58.910Z,3.70
2018-11-01T02:07:58.904Z,3.40
2018-11-01T02:08:58.893Z,3.29
2018-11-01T02:09:58.884Z,3.70
2018-11-01T02:10:58.868Z,3.29
2018-11-01T02:11:58.856Z,3.40
2018-11-01T02:12:58.845Z,3.70
2018-11-01T02:13:58.844Z,3.29
2018-11-01T02:14:58.823Z,3.40
2018-11-01T02:15:58.813Z,3.09
2018-11-01T02:16:58.801Z,3.40
2018-11-01T02:17:58.794Z,2.90
2018-11-01T02:18:58.781Z,3.29
2018-11-01T02:19:58.769Z,3.59
2018-11-01T02:20:58.760Z,3.29
2018-11-01T02:21:58.747Z,3.70
2018-11-01T02:22:58.734Z,3.79
2018-11-01T02:23:58.727Z,3.59
2018-11-01T02:24:58.716Z,3.70
2018-11-01T02:25:58.705Z,3.59
2018-11-01T02:26:58.695Z,3.70
2018-11-01T02:27:58.681Z,3.79
2018-11-01T02:28:58.672Z,3.90
2018-11-01T02:29:58.660Z,4.30
2018-11-01T02:30:58.648Z,4.00
2018-11-01T02:31:58.636Z,4.09
2018-11-01T02:32:58.625Z,3.70
2018-11-01T02:33:58.618Z,4.09
2018-11-01T02:34:58.604Z,4.00
2018-11-01T02:35:58.594Z,4.00
2018-11-01T02:36:58.582Z,3.79
2018-11-01T02:37:58.654Z,3.79
2018-11-01T02:38:58.562Z,3.59
2018-11-01T02:39:58.554Z,4.50
2018-11-01T02:40:58.540Z,4.00
2018-11-01T02:41:58.529Z,4.30
2018-11-01T02:42:58.518Z,4.69
2018-11-01T02:43:58.506Z,4.69
2018-11-01T02:44:58.498Z,4.09
2018-11-01T02:45:58.487Z,4.40
2018-11-01T02:46:58.472Z,4.50
2018-11-01T02:47:58.464Z,4.40
2018-11-01T02:48:58.454Z,4.69
2018-11-01T02:49:58.442Z,4.50
2018-11-01T02:50:58.428Z,5.19
2018-11-01T02:51:58.420Z,5.00
2018-11-01T02:52:58.408Z,5.00
2018-11-01T02:53:58.400Z,5.09
2018-11-01T02:54:58.385Z,4.90
2018-11-01T02:55:58.378Z,4.80
2018-11-01T02:56:58.363Z,5.09
2018-11-01T02:57:58.354Z,4.80
2018-11-01T02:58:58.340Z,5.30
2018-11-01T02:59:58.329Z,4.69
2018-11-01T03:00:58.320Z,4.90
2018-11-01T03:01:58.309Z,4.69
2018-11-01T03:02:58.298Z,4.80
2018-11-01T03:03:58.291Z,4.30
2018-11-01T03:04:58.275Z,4.50
2018-11-01T03:05:58.267Z,4.40
2018-11-01T03:06:58.253Z,4.19
2018-11-01T03:07:58.241Z,4.00
2018-11-01T03:08:58.245Z,3.59
2018-11-01T03:09:58.223Z,3.59
2018-11-01T03:10:58.210Z,4.00
2018-11-01T03:11:58.204Z,4.50
2018-11-01T03:12:58.188Z,4.19
2018-11-01T03:13:58.191Z,4.40
2018-11-01T03:14:58.168Z,4.69
2018-11-01T03:15:58.156Z,4.80
2018-11-01T03:16:58.155Z,4.80
2018-11-01T03:17:58.136Z,4.90
2018-11-01T03:18:58.124Z,5.19
2018-11-01T03:19:58.111Z,4.80
2018-11-01T03:20:58.107Z,4.69
2018-11-01T03:21:58.091Z,4.80
2018-11-01T03:22:58.081Z,5.00
2018-11-01T03:23:58.068Z,4.50
2018-11-01T03:24:58.056Z,4.40
2018-11-01T03:25:58.046Z,5.09
2018-11-01T03:26:58.041Z,4.80
2018-11-01T03:27:58.025Z,5.00
2018-11-01T03:28:58.015Z,4.90
2018-11-01T03:29:58.008Z,4.69
2018-11-01T03:30:57.994Z,5.30
2018-11-01T03:31:57.983Z,4.59
2018-11-01T03:32:57.969Z,4.59
2018-11-01T03:33:57.959Z,4.59
2018-11-01T03:34:57.948Z,4.80
2018-11-01T03:35:57.937Z,5.09
2018-11-01T03:36:57.933Z,5.50
2018-11-01T03:37:57.976Z,5.50
2018-11-01T03:38:57.995Z,5.19
2018-11-01T03:39:57.892Z,5.09
2018-11-01T03:40:57.883Z,5.19
2018-11-01T03:41:57.870Z,5.00
2018-11-01T03:42:57.862Z,5.19
2018-11-01T03:43:57.851Z,4.59
2018-11-01T03:44:57.841Z,4.40
2018-11-01T03:45:57.827Z,4.69
2018-11-01T03:46:57.823Z,4.50
2018-11-01T03:47:57.805Z,4.50
2018-11-01T03:48:57.793Z,4.90
2018-11-01T03:49:57.785Z,4.90
2018-11-01T03:50:57.776Z,4.40
2018-11-01T03:51:57.878Z,4.59
2018-11-01T03:52:57.754Z,4.80
2018-11-01T03:53:57.871Z,5.09
2018-11-01T03:54:57.729Z,4.69
2018-11-01T03:55:57.720Z,4.69
2018-11-01T03:56:57.708Z,4.50
2018-11-01T03:57:57.697Z,4.50
2018-11-01T03:58:57.687Z,4.80
2018-11-01T03:59:57.677Z,5.00
2018-11-01T04:00:57.664Z,5.00
2018-11-01T04:01:57.652Z,5.09
2018-11-01T04:02:57.642Z,4.59
2018-11-01T04:03:57.720Z,4.69
2018-11-01T04:04:57.621Z,4.40
2018-11-01T04:05:57.610Z,4.80
2018-11-01T04:06:57.597Z,4.90
2018-11-01T04:07:57.588Z,4.40
2018-11-01T04:08:57.575Z,4.90
2018-11-01T04:09:57.565Z,5.09
2018-11-01T04:10:57.553Z,5.19
2018-11-01T04:11:57.541Z,5.30
2018-11-01T04:12:57.531Z,4.59
2018-11-01T04:13:57.521Z,4.59
2018-11-01T04:14:57.514Z,4.30
2018-11-01T04:15:57.501Z,4.40
2018-11-01T04:16:57.540Z,4.69
2018-11-01T04:17:57.478Z,4.59
2018-11-01T04:18:57.474Z,5.30
2018-11-01T04:19:57.455Z,4.90
2018-11-01T04:20:57.444Z,4.80
2018-11-01T04:21:57.432Z,4.19
2018-11-01T04:22:57.424Z,5.40
2018-11-01T04:23:57.415Z,4.19
2018-11-01T04:24:57.401Z,4.69
2018-11-01T04:25:57.394Z,4.69
2018-11-01T04:26:57.381Z,5.50
2018-11-01T04:27:57.368Z,5.00
2018-11-01T04:28:57.360Z,5.09
2018-11-01T04:29:57.347Z,6.09
2018-11-01T04:30:57.339Z,6.09
2018-11-01T04:31:57.328Z,6.19
2018-11-01T04:32:57.331Z,6.40
2018-11-01T04:33:57.304Z,5.30
2018-11-01T04:34:57.294Z,5.69
2018-11-01T04:35:57.283Z,5.09
2018-11-01T04:36:57.275Z,5.00
2018-11-01T04:37:57.260Z,5.09
2018-11-01T04:38:57.252Z,5.19
2018-11-01T04:39:57.236Z,5.19
2018-11-01T04:40:57.232Z,5.40
2018-11-01T04:41:57.216Z,5.80
2018-11-01T04:42:57.211Z,6.00
2018-11-01T04:43:57.194Z,6.00
2018-11-01T04:44:57.218Z,6.09
2018-11-01T04:45:57.178Z,5.50
2018-11-01T04:46:57.168Z,5.30
2018-11-01T04:47:57.268Z,5.59
2018-11-01T04:48:57.139Z,5.59
2018-11-01T04:49:57.130Z,5.19
2018-11-01T04:50:57.118Z,5.30
2018-11-01T04:51:57.106Z,5.40
2018-11-01T04:52:57.095Z,5.19
2018-11-01T04:53:57.087Z,5.69
2018-11-01T04:54:57.075Z,6.19
2018-11-01T04:55:57.065Z,5.40
2018-11-01T04:56:57.053Z,6.00
2018-11-01T04:57:57.044Z,5.30
2018-11-01T04:58:57.031Z,5.80
2018-11-01T04:59:57.020Z,5.90
2018-11-01T05:00:57.011Z,5.50
2018-11-01T05:01:56.999Z,5.30
2018-11-01T05:02:56.988Z,5.30
2018-11-01T05:03:56.978Z,5.30
2018-11-01T05:04:56.997Z,5.19
2018-11-01T05:05:56.973Z,5.80
2018-11-01T05:06:56.952Z,5.09
2018-11-01T05:07:56.931Z,4.90
2018-11-01T05:08:56.924Z,5.40
2018-11-01T05:09:56.911Z,4.90
2018-11-01T05:10:56.902Z,4.80
2018-11-01T05:11:56.895Z,4.69
2018-11-01T05:12:56.938Z,4.40
2018-11-01T05:13:56.868Z,5.30
2018-11-01T05:14:56.855Z,4.90
2018-11-01T05:15:56.846Z,5.30
2018-11-01T05:16:56.834Z,5.09
2018-11-01T05:17:56.824Z,5.30
2018-11-01T05:18:56.815Z,5.50
2018-11-01T05:19:56.803Z,5.30
2018-11-01T05:20:56.792Z,5.40
2018-11-01T05:21:56.786Z,5.50
2018-11-01T05:22:56.767Z,5.90
2018-11-01T05:23:56.757Z,5.59
2018-11-01T05:24:56.749Z,5.59
2018-11-01T05:25:56.839Z,5.69
2018-11-01T05:26:56.725Z,5.90
2018-11-01T05:27:56.713Z,5.40
2018-11-01T05:28:56.703Z,6.09
2018-11-01T05:29:56.693Z,6.09
2018-11-01T05:30:56.681Z,5.90
2018-11-01T05:31:56.672Z,5.80
2018-11-01T05:32:56.662Z,5.30
2018-11-01T05:33:56.650Z,5.50
2018-11-01T05:34:56.638Z,5.50
2018-11-01T05:35:56.639Z,5.00
2018-11-01T05:36:56.618Z,4.50
2018-11-01T05:37:56.606Z,5.00
2018-11-01T05:38:56.595Z,4.59
2018-11-01T05:39:56.587Z,4.80
2018-11-01T05:40:56.572Z,4.80
2018-11-01T05:41:56.597Z,4.90
2018-11-01T05:42:56.551Z,4.80
2018-11-01T05:43:56.539Z,4.69
2018-11-01T05:44:56.531Z,5.09
2018-11-01T05:45:56.524Z,5.09
2018-11-01T05:46:56.507Z,5.40
2018-11-01T05:47:56.500Z,5.40
2018-11-01T05:48:56.485Z,5.40
2018-11-01T05:49:56.474Z,4.69
2018-11-01T05:50:56.465Z,5.59
2018-11-01T05:51:56.452Z,5.40
2018-11-01T05:52:56.441Z,5.80
2018-11-01T05:53:56.432Z,5.30
2018-11-01T05:54:56.423Z,5.69
2018-11-01T05:55:56.407Z,5.19
2018-11-01T05:56:56.400Z,5.19
2018-11-01T05:57:56.387Z,5.40
2018-11-01T05:58:56.378Z,4.69
2018-11-01T05:59:56.475Z,5.80
2018-11-01T06:00:56.355Z,4.50
2018-11-01T06:01:56.350Z,5.30
2018-11-01T06:02:56.333Z,5.00
2018-11-01T06:03:56.322Z,5.69
2018-11-01T06:04:56.311Z,5.50
2018-11-01T06:05:56.300Z,5.69
2018-11-01T06:06:56.291Z,5.40
2018-11-01T06:07:56.282Z,5.59
2018-11-01T06:08:56.267Z,5.50
2018-11-01T06:09:56.257Z,5.40
2018-11-01T06:10:56.245Z,5.09
2018-11-01T06:11:56.238Z,5.50
2018-11-01T06:12:56.225Z,5.09
2018-11-01T06:13:56.215Z,5.30
2018-11-01T06:14:56.202Z,5.40
2018-11-01T06:15:56.192Z,5.00
2018-11-01T06:16:56.179Z,5.30
2018-11-01T06:17:56.170Z,5.09
2018-11-01T06:18:56.158Z,5.69
2018-11-01T06:19:56.148Z,4.90
2018-11-01T06:20:56.136Z,5.50
2018-11-01T06:21:56.125Z,5.69
2018-11-01T06:22:56.115Z,5.09
2018-11-01T06:23:56.104Z,4.90
2018-11-01T06:24:56.093Z,4.80
2018-11-01T06:25:56.081Z,4.80
2018-11-01T06:26:56.076Z,4.69
2018-11-01T06:27:56.063Z,4.40
2018-11-01T06:28:56.050Z,5.00
2018-11-01T06:29:56.040Z,4.69
2018-11-01T06:30:56.027Z,5.19
2018-11-01T06:31:56.022Z,4.59
2018-11-01T06:32:56.008Z,5.00
2018-11-01T06:33:55.996Z,4.90
2018-11-01T06:34:55.984Z,4.40
2018-11-01T06:35:55.973Z,5.00
2018-11-01T06:36:55.962Z,5.19
2018-11-01T06:37:55.951Z,5.40
2018-11-01T06:38:55.940Z,5.30
2018-11-01T06:39:55.930Z,5.19
2018-11-01T06:40:55.919Z,4.90
2018-11-01T06:41:55.910Z,4.90
2018-11-01T06:42:55.900Z,4.80
2018-11-01T06:43:55.887Z,4.80
2018-11-01T06:44:55.903Z,4.40
2018-11-01T06:45:55.864Z,4.50
2018-11-01T06:46:55.853Z,4.59
2018-11-01T06:47:55.843Z,4.40
2018-11-01T06:48:55.831Z,4.19
2018-11-01T06:49:55.822Z,4.00
2018-11-01T06:50:55.809Z,4.40
2018-11-01T06:51:55.798Z,4.69
2018-11-01T06:52:55.787Z,4.50
2018-11-01T06:53:55.777Z,4.59
2018-11-01T06:54:55.766Z,5.09
2018-11-01T06:55:55.754Z,4.30
2018-11-01T06:56:55.743Z,4.40
2018-11-01T06:57:55.733Z,4.90
2018-11-01T06:58:55.758Z,4.40
2018-11-01T06:59:55.717Z,4.80
2018-11-01T07:00:55.701Z,4.50
2018-11-01T07:01:55.689Z,4.59
2018-11-01T07:02:55.689Z,4.30
2018-11-01T07:03:55.668Z,4.40
2018-11-01T07:04:55.658Z,4.30
2018-11-01T07:05:55.646Z,4.50
2018-11-01T07:06:55.634Z,4.40
2018-11-01T07:07:55.626Z,4.00
2018-11-01T07:08:55.613Z,4.40
2018-11-01T07:09:55.603Z,4.59
2018-11-01T07:10:55.592Z,4.19
2018-11-01T07:11:55.579Z,4.50
2018-11-01T07:12:55.569Z,4.69
2018-11-01T07:13:55.559Z,4.50
2018-11-01T07:14:55.546Z,4.90
2018-11-01T07:15:55.538Z,4.90
2018-11-01T07:16:55.542Z,4.80
2018-11-01T07:17:55.515Z,4.30
2018-11-01T07:18:55.504Z,4.59
2018-11-01T07:19:55.492Z,4.00
2018-11-01T07:20:55.482Z,4.59
2018-11-01T07:21:55.472Z,4.40
2018-11-01T07:22:55.462Z,4.19
2018-11-01T07:23:55.454Z,3.90
2018-11-01T07:24:55.440Z,4.40
2018-11-01T07:25:55.554Z,4.09
2018-11-01T07:26:55.415Z,4.19
2018-11-01T07:27:55.407Z,3.90
2018-11-01T07:28:55.398Z,3.90
2018-11-01T07:29:55.385Z,4.19
2018-11-01T07:30:55.373Z,4.30
2018-11-01T07:31:55.373Z,4.80
2018-11-01T07:32:55.367Z,4.00
2018-11-01T07:33:55.341Z,4.50
2018-11-01T07:34:55.330Z,4.09
2018-11-01T07:35:55.318Z,4.00
2018-11-01T07:36:55.308Z,4.30
2018-11-01T07:37:55.299Z,3.79
2018-11-01T07:38:55.285Z,4.59
2018-11-01T07:39:55.342Z,4.40
2018-11-01T07:40:55.272Z,4.59
2018-11-01T07:41:55.258Z,4.50
2018-11-01T07:42:55.243Z,4.59
2018-11-01T07:43:55.232Z,5.00
2018-11-01T07:44:55.222Z,5.59
2018-11-01T07:45:55.212Z,5.30
2018-11-01T07:46:55.198Z,6.30
2018-11-01T07:47:55.188Z,6.09
2018-11-01T07:48:55.178Z,5.19
2018-11-01T07:49:55.168Z,4.50
2018-11-01T07:50:55.157Z,4.69
2018-11-01T07:51:55.151Z,4.80
2018-11-01T07:52:55.165Z,4.19
2018-11-01T07:53:55.124Z,4.69
2018-11-01T07:54:55.115Z,4.69
2018-11-01T07:55:55.102Z,4.90
2018-11-01T07:56:55.090Z,4.50
2018-11-01T07:57:55.079Z,4.50
2018-11-01T07:58:55.069Z,4.50
2018-11-01T07:59:55.057Z,4.59
2018-11-01T08:00:55.050Z,4.69
2018-11-01T08:01:55.036Z,4.50
2018-11-01T08:02:55.024Z,4.50
2018-11-01T08:03:55.015Z,4.30
2018-11-01T08:04:55.003Z,4.30
2018-11-01T08:05:55.148Z,4.30
2018-11-01T08:06:54.980Z,4.80
2018-11-01T08:07:54.970Z,4.50
2018-11-01T08:08:54.959Z,4.00
2018-11-01T08:09:54.948Z,4.50
2018-11-01T08:10:54.939Z,4.40
2018-11-01T08:11:54.926Z,4.30
2018-11-01T08:12:54.915Z,4.59
2018-11-01T08:13:54.906Z,4.40
2018-11-01T08:14:54.895Z,4.09
2018-11-01T08:15:54.881Z,4.00
2018-11-01T08:16:54.875Z,4.09
2018-11-01T08:17:54.860Z,4.50
2018-11-01T08:18:54.852Z,4.40
2018-11-01T08:19:54.925Z,4.30
2018-11-01T08:20:54.983Z,4.19
2018-11-01T08:21:54.816Z,4.09
2018-11-01T08:22:54.807Z,4.09
2018-11-01T08:23:54.795Z,4.00
2018-11-01T08:24:54.783Z,4.19
2018-11-01T08:25:54.773Z,4.00
2018-11-01T08:26:54.766Z,4.30
2018-11-01T08:27:54.822Z,4.19
2018-11-01T08:28:54.743Z,4.30
2018-11-01T08:29:54.731Z,4.50
2018-11-01T08:30:54.720Z,4.50
2018-11-01T08:31:54.707Z,4.59
2018-11-01T08:32:54.698Z,4.19
2018-11-01T08:33:54.688Z,4.09
2018-11-01T08:34:54.679Z,4.00
2018-11-01T08:35:54.666Z,4.09
2018-11-01T08:36:54.653Z,4.30
2018-11-01T08:37:54.644Z,4.40
2018-11-01T08:38:54.635Z,4.00
2018-11-01T08:39:54.620Z,4.30
2018-11-01T08:40:54.646Z,4.50
2018-11-01T08:41:54.602Z,4.09
2018-11-01T08:42:54.590Z,4.40
2018-11-01T08:43:54.578Z,4.30
2018-11-01T08:44:54.566Z,4.19
2018-11-01T08:45:54.561Z,4.69
2018-11-01T08:46:54.550Z,4.50
2018-11-01T08:47:54.533Z,4.69
2018-11-01T08:48:54.525Z,4.80
2018-11-01T08:49:54.539Z,4.69
2018-11-01T08:50:54.501Z,4.30
2018-11-01T08:51:54.489Z,4.59
2018-11-01T08:52:54.479Z,4.30
2018-11-01T08:53:54.468Z,4.19
2018-11-01T08:54:54.456Z,4.40
2018-11-01T08:55:54.469Z,4.59
2018-11-01T08:56:54.435Z,4.59
2018-11-01T08:57:54.431Z,4.90
2018-11-01T08:58:54.415Z,5.50
2018-11-01T08:59:54.403Z,4.80
2018-11-01T09:00:54.393Z,5.40
2018-11-01T09:01:54.381Z,5.09
2018-11-01T09:02:54.372Z,4.90
2018-11-01T09:03:54.361Z,5.09
2018-11-01T09:04:54.352Z,4.50
2018-11-01T09:05:54.339Z,4.90
2018-11-01T09:06:54.341Z,4.69
2018-11-01T09:07:54.349Z,4.69
2018-11-01T09:08:54.304Z,4.69
2018-11-01T09:09:54.295Z,4.59
2018-11-01T09:10:54.281Z,4.59
2018-11-01T09:11:54.274Z,4.19
2018-11-01T09:12:54.383Z,4.30
2018-11-01T09:13:54.261Z,4.50
2018-11-01T09:14:54.240Z,4.69
2018-11-01T09:15:54.229Z,4.69
2018-11-01T09:16:54.219Z,5.00
2018-11-01T09:17:54.209Z,5.09
2018-11-01T09:18:54.194Z,7.00
2018-11-01T09:19:54.185Z,7.30
2018-11-01T09:20:54.176Z,7.30
2018-11-01T09:21:54.166Z,7.09
2018-11-01T09:22:54.153Z,7.19
2018-11-01T09:23:54.140Z,7.50
2018-11-01T09:24:54.130Z,6.90
2018-11-01T09:25:54.122Z,6.80
2018-11-01T09:26:54.211Z,7.00
2018-11-01T09:27:54.097Z,7.30
2018-11-01T09:28:54.085Z,7.59
2018-11-01T09:29:54.075Z,7.69
2018-11-01T09:30:54.065Z,8.10
2018-11-01T09:31:54.054Z,8.30
2018-11-01T09:32:54.118Z,8.19
2018-11-01T09:33:54.035Z,8.30
2018-11-01T09:34:54.022Z,8.19
2018-11-01T09:35:54.015Z,8.19
2018-11-01T09:36:54.000Z,8.30
2018-11-01T09:37:54.009Z,7.69
2018-11-01T09:38:53.977Z,7.90
2018-11-01T09:39:53.969Z,7.80
2018-11-01T09:40:53.955Z,7.40
2018-11-01T09:41:53.944Z,7.19
2018-11-01T09:42:53.940Z,6.40
2018-11-01T09:43:53.923Z,6.19
2018-11-01T09:44:53.911Z,6.19
2018-11-01T09:45:53.999Z,6.09
2018-11-01T09:46:54.422Z,6.80
2018-11-01T09:47:53.980Z,6.09
2018-11-01T09:48:53.867Z,6.00
2018-11-01T09:49:53.857Z,5.80
2018-11-01T09:50:53.849Z,5.40
2018-11-01T09:51:53.835Z,5.09
2018-11-01T09:52:53.824Z,5.30
2018-11-01T09:53:53.816Z,5.19
2018-11-01T09:54:53.805Z,5.09
2018-11-01T09:55:53.982Z,5.19
2018-11-01T09:56:53.783Z,5.40
2018-11-01T09:57:53.771Z,5.09
2018-11-01T09:58:53.763Z,5.19
2018-11-01T09:59:53.750Z,5.80
2018-11-01T10:00:53.795Z,5.50
2018-11-01T10:01:53.728Z,5.09
2018-11-01T10:02:53.718Z,5.09
2018-11-01T10:03:53.705Z,5.50
2018-11-01T10:04:53.692Z,6.50
2018-11-01T10:05:53.689Z,6.59
2018-11-01T10:06:53.721Z,6.90
2018-11-01T10:07:53.662Z,6.90
2018-11-01T10:08:53.651Z,8.39
2018-11-01T10:09:53.643Z,9.89
2018-11-01T10:10:53.632Z,9.89
2018-11-01T10:11:53.623Z,9.30
2018-11-01T10:12:53.608Z,8.00
2018-11-01T10:13:53.609Z,7.80
2018-11-01T10:14:53.594Z,6.69
2018-11-01T10:15:53.709Z,6.30
2018-11-01T10:16:53.886Z,6.50
2018-11-01T10:17:53.967Z,7.19
2018-11-01T10:18:53.543Z,7.59
2018-11-01T10:19:53.531Z,7.59
2018-11-01T10:20:53.521Z,6.59
2018-11-01T10:21:53.651Z,6.40
2018-11-01T10:22:53.560Z,6.50
2018-11-01T10:23:53.488Z,6.40
2018-11-01T10:24:53.482Z,6.40
2018-11-01T10:25:53.465Z,6.80
2018-11-01T10:26:53.460Z,7.40
2018-11-01T10:27:53.445Z,6.59
2018-11-01T10:28:53.433Z,6.69
2018-11-01T10:29:53.423Z,6.90
2018-11-01T10:30:53.411Z,6.40
2018-11-01T10:31:53.402Z,6.50
2018-11-01T10:32:53.389Z,6.90
2018-11-01T10:33:53.462Z,6.80
2018-11-01T10:34:53.366Z,6.30
2018-11-01T10:35:53.356Z,6.50
2018-11-01T10:36:53.347Z,6.59
2018-11-01T10:37:53.337Z,6.19
2018-11-01T10:38:53.324Z,6.50
2018-11-01T10:39:53.312Z,5.69
2018-11-01T10:40:53.332Z,6.00
2018-11-01T10:41:53.290Z,6.00
2018-11-01T10:42:53.282Z,6.00
2018-11-01T10:43:53.269Z,5.90
2018-11-01T10:44:53.256Z,6.09
2018-11-01T10:45:53.256Z,5.40
2018-11-01T10:46:53.236Z,5.59
2018-11-01T10:47:53.254Z,5.50
2018-11-01T10:48:53.213Z,5.50
2018-11-01T10:49:53.203Z,5.40
2018-11-01T10:50:53.193Z,5.19
2018-11-01T10:51:53.183Z,5.40
2018-11-01T10:52:53.172Z,5.59
2018-11-01T10:53:53.309Z,5.40
2018-11-01T10:54:53.149Z,5.19
2018-11-01T10:55:53.142Z,5.80
2018-11-01T10:56:53.126Z,6.40
2018-11-01T10:57:53.117Z,6.09
2018-11-01T10:58:53.108Z,6.69
2018-11-01T10:59:53.139Z,5.80
2018-11-01T11:00:53.163Z,6.19
2018-11-01T11:01:53.080Z,6.69
2018-11-01T11:02:53.062Z,6.40
2018-11-01T11:03:53.055Z,6.00
2018-11-01T11:04:53.038Z,6.09
2018-11-01T11:05:53.028Z,5.80
2018-11-01T11:06:53.019Z,6.00
2018-11-01T11:07:53.006Z,5.80
2018-11-01T11:08:52.998Z,6.30
2018-11-01T11:09:52.985Z,6.00
2018-11-01T11:10:52.975Z,6.59
2018-11-01T11:11:52.964Z,6.40
2018-11-01T11:12:52.952Z,6.59
2018-11-01T11:13:52.942Z,6.09
2018-11-01T11:14:52.929Z,6.30
2018-11-01T11:15:52.925Z,5.90
2018-11-01T11:16:52.910Z,5.00
2018-11-01T11:17:52.899Z,5.40
2018-11-01T11:18:52.885Z,5.59
2018-11-01T11:19:52.938Z,5.59
2018-11-01T11:20:53.115Z,5.69
2018-11-01T11:21:52.853Z,5.19
2018-11-01T11:22:52.846Z,5.80
2018-11-01T11:23:52.831Z,5.30
2018-11-01T11:24:52.820Z,5.50
2018-11-01T11:25:52.809Z,5.19
2018-11-01T11:26:52.798Z,5.50
2018-11-01T11:27:52.790Z,5.69
2018-11-01T11:28:52.779Z,5.59
2018-11-01T11:29:52.842Z,5.19
2018-11-01T11:30:52.760Z,5.69
2018-11-01T11:31:52.744Z,5.59
2018-11-01T11:32:52.735Z,5.69
2018-11-01T11:33:52.723Z,5.80
2018-11-01T11:34:52.710Z,6.00
2018-11-01T11:35:52.795Z,6.59
2018-11-01T11:36:52.690Z,6.40
2018-11-01T11:37:52.691Z,6.50
2018-11-01T11:38:52.722Z,6.69
2018-11-01T11:39:52.664Z,6.19
2018-11-01T11:40:52.646Z,6.19
2018-11-01T11:41:52.634Z,5.90
2018-11-01T11:42:52.625Z,5.69
2018-11-01T11:43:52.611Z,5.30
2018-11-01T11:44:52.603Z,5.30
2018-11-01T11:45:52.593Z,5.09
2018-11-01T11:46:52.586Z,5.40
2018-11-01T11:47:52.570Z,5.90
2018-11-01T11:48:52.558Z,5.40
2018-11-01T11:49:52.548Z,5.59
2018-11-01T11:50:52.538Z,5.30
2018-11-01T11:51:52.528Z,5.30
2018-11-01T11:52:52.516Z,5.80
2018-11-01T11:53:52.510Z,5.80
2018-11-01T11:54:52.493Z,5.50
2018-11-01T11:55:52.481Z,5.50
2018-11-01T11:56:52.512Z,6.09
2018-11-01T11:57:52.461Z,6.19
2018-11-01T11:58:52.451Z,5.90
2018-11-01T11:59:52.440Z,6.30
2018-11-01T12:00:52.429Z,6.09
2018-11-01T12:01:52.416Z,5.80
2018-11-01T12:02:52.407Z,5.50
2018-11-01T12:03:52.396Z,5.59
2018-11-01T12:04:52.385Z,5.59
2018-11-01T12:05:52.474Z,5.90
2018-11-01T12:06:52.362Z,6.80
2018-11-01T12:07:52.352Z,6.40
2018-11-01T12:08:52.343Z,5.80
2018-11-01T12:09:52.329Z,6.09
2018-11-01T12:10:52.319Z,6.40
2018-11-01T12:11:52.309Z,5.69
2018-11-01T12:12:52.297Z,6.00
2018-11-01T12:13:52.287Z,5.90
2018-11-01T12:14:52.276Z,5.50
2018-11-01T12:15:52.263Z,5.30
2018-11-01T12:16:52.254Z,5.09
2018-11-01T12:17:52.242Z,5.09
2018-11-01T12:18:52.230Z,5.40
2018-11-01T12:19:52.220Z,5.09
2018-11-01T12:20:52.209Z,5.50
2018-11-01T12:21:52.199Z,5.19
2018-11-01T12:22:52.193Z,5.50
2018-11-01T12:23:52.183Z,5.19
2018-11-01T12:24:52.165Z,5.40
2018-11-01T12:25:52.156Z,4.90
2018-11-01T12:26:52.144Z,5.30
2018-11-01T12:27:52.135Z,4.90
2018-11-01T12:28:52.204Z,5.09
2018-11-01T12:29:52.113Z,5.19
2018-11-01T12:30:52.102Z,5.30
2018-11-01T12:31:52.088Z,5.30
2018-11-01T12:32:52.078Z,5.09
2018-11-01T12:33:52.069Z,5.50
2018-11-01T12:34:52.055Z,5.59
2018-11-01T12:35:52.088Z,5.69
2018-11-01T12:36:52.035Z,5.59
2018-11-01T12:37:52.023Z,5.50
2018-11-01T12:38:52.012Z,5.50
2018-11-01T12:39:52.002Z,5.59
2018-11-01T12:40:51.992Z,5.69
2018-11-01T12:41:51.979Z,5.80
2018-11-01T12:42:51.974Z,5.50
2018-11-01T12:43:51.956Z,5.59
2018-11-01T12:44:51.945Z,5.40
2018-11-01T12:45:51.936Z,5.59
2018-11-01T12:46:51.925Z,5.90
2018-11-01T12:47:51.912Z,5.80
2018-11-01T12:48:51.908Z,5.50
2018-11-01T12:49:52.013Z,5.50
2018-11-01T12:50:51.884Z,5.50
2018-11-01T12:51:51.870Z,5.50
2018-11-01T12:52:51.859Z,5.40
2018-11-01T12:53:51.847Z,5.50
2018-11-01T12:54:51.839Z,5.90
2018-11-01T12:55:51.826Z,5.19
2018-11-01T12:56:51.816Z,5.40
2018-11-01T12:57:51.803Z,5.40
2018-11-01T12:58:51.794Z,5.40
2018-11-01T12:59:51.785Z,5.50
2018-11-01T13:00:51.773Z,5.40
2018-11-01T13:01:51.762Z,5.59
2018-11-01T13:02:51.759Z,5.50
2018-11-01T13:03:51.739Z,5.19
2018-11-01T13:04:51.728Z,5.19
2018-11-01T13:05:51.716Z,5.30
2018-11-01T13:06:51.710Z,5.00
2018-11-01T13:07:51.695Z,5.19
2018-11-01T13:08:51.689Z,5.30
2018-11-01T13:09:51.673Z,5.00
2018-11-01T13:10:51.792Z,5.30
2018-11-01T13:11:51.655Z,5.40
2018-11-01T13:12:51.639Z,5.40
2018-11-01T13:13:51.629Z,5.09
2018-11-01T13:14:51.619Z,5.09
2018-11-01T13:15:51.609Z,4.90
2018-11-01T13:16:51.600Z,5.09
2018-11-01T13:17:51.627Z,4.40